createdAt,value
2022-10-19T00:00:00.419Z,85.26
2022-10-19T00:01:01.742Z,85.26
2022-10-19T00:02:00.482Z,85.26
2022-10-19T00:03:00.365Z,85.50
2022-10-19T00:04:02.429Z,85.50
2022-10-19T00:05:01.396Z,85.50
2022-10-19T00:06:08.853Z,85.50
2022-10-19T00:07:00.328Z,85.50
2022-10-19T00:08:00.294Z,85.29
2022-10-19T00:09:00.308Z,85.29
2022-10-19T00:10:00.303Z,85.29
2022-10-19T00:11:00.844Z,85.29
2022-10-19T00:12:00.341Z,85.29
2022-10-19T00:13:00.302Z,85.29
2022-10-19T00:14:00.793Z,85.29
2022-10-19T00:15:00.727Z,85.29
2022-10-19T00:16:00.652Z,85.29
2022-10-19T00:17:00.364Z,85.29
2022-10-19T00:18:00.380Z,85.53
2022-10-19T00:19:01.743Z,85.53
2022-10-19T00:20:00.512Z,85.53
2022-10-19T00:21:02.968Z,85.53
2022-10-19T00:22:00.308Z,85.53
2022-10-19T00:23:00.363Z,85.87
2022-10-19T00:24:00.683Z,85.87
2022-10-19T00:25:00.373Z,85.87
2022-10-19T00:26:00.547Z,85.87
2022-10-19T00:27:00.296Z,85.87
2022-10-19T00:28:00.331Z,85.84
2022-10-19T00:29:01.010Z,85.84
2022-10-19T00:30:00.345Z,85.84
2022-10-19T00:31:02.629Z,85.84
2022-10-19T00:32:00.320Z,85.84
2022-10-19T00:33:00.311Z,86.07
2022-10-19T00:34:00.441Z,86.07
2022-10-19T00:35:00.382Z,86.07
2022-10-19T00:36:00.780Z,86.07
2022-10-19T00:37:00.309Z,86.07
2022-10-19T00:38:00.307Z,86.29
2022-10-19T00:39:01.555Z,86.29
2022-10-19T00:40:00.352Z,86.29
2022-10-19T00:41:01.215Z,86.29
2022-10-19T00:42:00.331Z,86.29
2022-10-19T00:43:00.299Z,86.04
2022-10-19T00:44:05.313Z,86.04
2022-10-19T00:45:05.387Z,86.04
2022-10-19T00:46:00.305Z,86.04
2022-10-19T00:47:02.498Z,86.04
2022-10-19T00:48:00.353Z,85.84
2022-10-19T00:49:11.016Z,85.84
2022-10-19T00:50:00.357Z,85.84
2022-10-19T00:51:00.620Z,85.84
2022-10-19T00:52:03.708Z,85.84
2022-10-19T00:53:00.323Z,85.88
2022-10-19T00:54:01.532Z,85.88
2022-10-19T00:55:00.806Z,85.88
2022-10-19T00:56:02.282Z,85.88
2022-10-19T00:57:00.337Z,85.88
2022-10-19T00:58:01.685Z,86.02
2022-10-19T00:59:02.504Z,86.02
2022-10-19T01:00:01.887Z,86.02
2022-10-19T01:01:02.125Z,86.02
2022-10-19T01:02:02.308Z,86.02
2022-10-19T01:03:00.763Z,86.01
2022-10-19T01:04:00.513Z,86.01
2022-10-19T01:05:00.800Z,86.01
2022-10-19T01:06:00.747Z,86.01
2022-10-19T01:07:01.703Z,86.01
2022-10-19T01:08:00.391Z,86.78
2022-10-19T01:09:00.324Z,86.78
2022-10-19T01:10:00.725Z,86.78
2022-10-19T01:11:10.261Z,86.78
2022-10-19T01:12:08.379Z,86.78
2022-10-19T01:13:03.605Z,86.42
2022-10-19T01:14:10.224Z,86.42
2022-10-19T01:15:10.265Z,86.42
2022-10-19T01:16:08.328Z,86.42
2022-10-19T01:17:00.303Z,86.42
2022-10-19T01:18:04.914Z,86.70
2022-10-19T01:19:10.285Z,86.70
2022-10-19T01:20:10.292Z,86.70
2022-10-19T01:21:01.309Z,86.70
2022-10-19T01:22:03.619Z,86.70
2022-10-19T01:23:00.288Z,86.88
2022-10-19T01:24:10.271Z,86.88
2022-10-19T01:25:07.863Z,86.88
2022-10-19T01:26:01.339Z,86.88
2022-10-19T01:27:01.326Z,86.88
2022-10-19T01:28:07.322Z,86.92
2022-10-19T01:29:00.340Z,86.92
2022-10-19T01:30:10.302Z,86.92
2022-10-19T01:31:00.286Z,86.92
2022-10-19T01:32:03.607Z,86.92
2022-10-19T01:33:05.948Z,86.48
2022-10-19T01:34:10.281Z,86.48
2022-10-19T01:35:03.608Z,86.48
2022-10-19T01:36:00.305Z,86.48
2022-10-19T01:37:03.639Z,86.48
2022-10-19T01:38:06.546Z,86.44
2022-10-19T01:39:05.645Z,86.44
2022-10-19T01:40:06.578Z,86.44
2022-10-19T01:41:01.337Z,86.44
2022-10-19T01:42:01.340Z,86.44
2022-10-19T01:43:03.741Z,86.86
2022-10-19T01:44:06.908Z,86.86
2022-10-19T01:45:06.193Z,86.86
2022-10-19T01:46:06.326Z,86.86
2022-10-19T01:47:10.253Z,86.86
2022-10-19T01:48:04.719Z,86.70
2022-10-19T01:49:03.906Z,86.70
2022-10-19T01:50:05.345Z,86.70
2022-10-19T01:51:04.883Z,86.70
2022-10-19T01:52:03.083Z,86.70
2022-10-19T01:53:02.247Z,86.76
2022-10-19T01:54:03.255Z,86.76
2022-10-19T01:55:01.906Z,86.76
2022-10-19T01:56:02.112Z,86.76
2022-10-19T01:57:02.908Z,86.76
2022-10-19T01:58:06.255Z,86.73
2022-10-19T01:59:02.961Z,86.73
2022-10-19T02:00:01.364Z,86.73
2022-10-19T02:01:03.680Z,86.73
2022-10-19T02:02:02.430Z,86.73
2022-10-19T02:03:01.065Z,86.84
2022-10-19T02:04:01.097Z,86.84
2022-10-19T02:05:01.897Z,86.84
2022-10-19T02:06:03.806Z,86.84
2022-10-19T02:07:01.291Z,86.84
2022-10-19T02:08:02.759Z,86.98
2022-10-19T02:09:00.386Z,86.98
2022-10-19T02:10:00.500Z,86.98
2022-10-19T02:11:00.791Z,86.98
2022-10-19T02:12:01.829Z,86.98
2022-10-19T02:13:01.533Z,87.23
2022-10-19T02:14:03.756Z,87.23
2022-10-19T02:15:03.098Z,87.23
2022-10-19T02:16:02.532Z,87.23
2022-10-19T02:17:04.362Z,87.23
2022-10-19T02:18:01.301Z,87.26
2022-10-19T02:19:01.127Z,87.26
2022-10-19T02:20:00.891Z,87.26
2022-10-19T02:21:02.306Z,87.26
2022-10-19T02:22:00.634Z,87.26
2022-10-19T02:23:02.105Z,87.26
2022-10-19T02:24:00.310Z,87.26
2022-10-19T02:25:00.327Z,87.26
2022-10-19T02:26:00.594Z,87.26
2022-10-19T02:27:00.570Z,87.26
2022-10-19T02:28:01.552Z,87.50
2022-10-19T02:29:00.496Z,87.50
2022-10-19T02:30:00.424Z,87.50
2022-10-19T02:31:00.792Z,87.50
2022-10-19T02:32:00.744Z,87.50
2022-10-19T02:33:00.414Z,87.48
2022-10-19T02:34:00.530Z,87.48
2022-10-19T02:35:00.631Z,87.48
2022-10-19T02:36:00.455Z,87.48
2022-10-19T02:37:00.412Z,87.48
2022-10-19T02:38:00.961Z,87.45
2022-10-19T02:39:00.345Z,87.45
2022-10-19T02:40:00.336Z,87.45
2022-10-19T02:41:07.117Z,87.45
2022-10-19T02:42:06.709Z,87.45
2022-10-19T02:43:03.102Z,87.48
2022-10-19T02:44:03.222Z,87.48
2022-10-19T02:45:10.297Z,87.48
2022-10-19T02:46:03.302Z,87.48
2022-10-19T02:47:03.938Z,87.48
2022-10-19T02:48:03.943Z,87.47
2022-10-19T02:49:01.281Z,87.47
2022-10-19T02:50:00.600Z,87.47
2022-10-19T02:51:00.336Z,87.47
2022-10-19T02:52:02.643Z,87.47
2022-10-19T02:53:00.501Z,88.00
2022-10-19T02:54:04.149Z,88.00
2022-10-19T02:55:00.304Z,88.00
2022-10-19T02:56:00.312Z,88.00
2022-10-19T02:57:00.577Z,88.00
2022-10-19T02:58:00.324Z,88.56
2022-10-19T02:59:00.820Z,88.56
2022-10-19T03:00:00.656Z,88.56
2022-10-19T03:01:00.370Z,88.56
2022-10-19T03:02:00.303Z,88.56
2022-10-19T03:03:00.353Z,88.29
2022-10-19T03:04:00.387Z,88.29
2022-10-19T03:05:00.294Z,88.29
2022-10-19T03:06:00.327Z,88.29
2022-10-19T03:07:00.795Z,88.29
2022-10-19T03:08:00.391Z,88.27
2022-10-19T03:09:00.331Z,88.27
2022-10-19T03:10:00.325Z,88.27
2022-10-19T03:11:00.334Z,88.27
2022-10-19T03:12:00.301Z,88.27
2022-10-19T03:13:00.304Z,88.17
2022-10-19T03:14:00.516Z,88.17
2022-10-19T03:15:00.323Z,88.17
2022-10-19T03:16:08.266Z,88.17
2022-10-19T03:17:00.418Z,88.17
2022-10-19T03:18:00.301Z,88.17
2022-10-19T03:19:00.308Z,88.17
2022-10-19T03:20:00.907Z,88.17
2022-10-19T03:21:01.575Z,88.17
2022-10-19T03:22:00.526Z,88.17
2022-10-19T03:23:00.338Z,88.35
2022-10-19T03:24:00.449Z,88.35
2022-10-19T03:25:00.295Z,88.35
2022-10-19T03:26:00.354Z,88.35
2022-10-19T03:27:00.476Z,88.35
2022-10-19T03:28:00.318Z,88.52
2022-10-19T03:29:00.371Z,88.52
2022-10-19T03:30:00.319Z,88.52
2022-10-19T03:31:00.305Z,88.52
2022-10-19T03:32:00.356Z,88.52
2022-10-19T03:33:00.305Z,88.72
2022-10-19T03:34:00.333Z,88.72
2022-10-19T03:35:00.310Z,88.72
2022-10-19T03:36:10.348Z,88.72
2022-10-19T03:37:00.290Z,88.72
2022-10-19T03:38:00.322Z,88.48
2022-10-19T03:39:01.809Z,88.48
2022-10-19T03:40:00.322Z,88.48
2022-10-19T03:41:00.308Z,88.48
2022-10-19T03:42:00.353Z,88.48
2022-10-19T03:43:00.325Z,88.61
2022-10-19T03:45:00.334Z,88.61
2022-10-19T03:46:00.650Z,88.61
2022-10-19T03:47:00.366Z,88.61
2022-10-19T03:48:00.299Z,88.53
2022-10-19T03:49:00.810Z,88.53
2022-10-19T03:50:00.340Z,88.53
2022-10-19T03:51:01.589Z,88.53
2022-10-19T03:52:00.315Z,88.53
2022-10-19T03:53:00.374Z,88.64
2022-10-19T03:54:03.030Z,88.64
2022-10-19T03:55:00.329Z,88.64
2022-10-19T03:56:01.116Z,88.64
2022-10-19T03:57:00.305Z,88.64
2022-10-19T03:58:00.343Z,88.89
2022-10-19T03:59:00.951Z,88.89
2022-10-19T04:00:00.343Z,88.89
2022-10-19T04:01:00.803Z,88.89
2022-10-19T04:02:00.322Z,88.89
2022-10-19T04:03:00.335Z,89.04
2022-10-19T04:04:01.742Z,89.04
2022-10-19T04:05:00.436Z,89.04
2022-10-19T04:06:01.133Z,89.04
2022-10-19T04:07:00.303Z,89.04
2022-10-19T04:08:00.302Z,89.25
2022-10-19T04:09:00.838Z,89.25
2022-10-19T04:10:00.805Z,89.25
2022-10-19T04:11:02.837Z,89.25
2022-10-19T04:12:00.306Z,89.25
2022-10-19T04:13:00.328Z,89.53
2022-10-19T04:14:01.039Z,89.53
2022-10-19T04:15:00.310Z,89.53
2022-10-19T04:16:00.385Z,89.53
2022-10-19T04:17:01.058Z,89.53
2022-10-19T04:18:00.308Z,89.68
2022-10-19T04:19:00.335Z,89.68
2022-10-19T04:20:00.331Z,89.68
2022-10-19T04:21:01.693Z,89.68
2022-10-19T04:22:00.307Z,89.68
2022-10-19T04:23:00.320Z,89.63
2022-10-19T04:24:01.815Z,89.63
2022-10-19T04:25:00.309Z,89.63
2022-10-19T04:26:00.290Z,89.63
2022-10-19T04:27:00.607Z,89.63
2022-10-19T04:28:00.330Z,89.64
2022-10-19T04:29:00.627Z,89.64
2022-10-19T04:30:00.311Z,89.64
2022-10-19T04:31:01.754Z,89.64
2022-10-19T04:32:00.306Z,89.64
2022-10-19T04:33:00.305Z,89.89
2022-10-19T04:34:00.317Z,89.89
2022-10-19T04:35:00.347Z,89.89
2022-10-19T04:36:01.086Z,89.89
2022-10-19T04:37:00.342Z,89.89
2022-10-19T04:38:00.301Z,89.46
2022-10-19T04:39:00.323Z,89.46
2022-10-19T04:40:00.301Z,89.46
2022-10-19T04:41:01.452Z,89.46
2022-10-19T04:42:00.323Z,89.46
2022-10-19T04:43:00.291Z,89.51
2022-10-19T04:44:01.407Z,89.51
2022-10-19T04:45:00.336Z,89.51
2022-10-19T04:46:02.785Z,89.51
2022-10-19T04:47:00.314Z,89.51
2022-10-19T04:48:00.329Z,89.58
2022-10-19T04:49:00.345Z,89.58
2022-10-19T04:50:00.367Z,89.58
2022-10-19T04:51:00.545Z,89.58
2022-10-19T04:52:00.303Z,89.58
2022-10-19T04:53:00.311Z,89.75
2022-10-19T04:54:01.146Z,89.75
2022-10-19T04:55:00.599Z,89.75
2022-10-19T04:56:03.887Z,89.75
2022-10-19T04:57:00.320Z,89.75
2022-10-19T04:58:00.316Z,89.74
2022-10-19T04:59:00.406Z,89.74
2022-10-19T05:00:00.396Z,89.74
2022-10-19T05:01:06.674Z,89.74
2022-10-19T05:02:00.302Z,89.74
2022-10-19T05:03:00.295Z,89.68
2022-10-19T05:04:01.242Z,89.68
2022-10-19T05:05:00.456Z,89.68
2022-10-19T05:06:00.545Z,89.68
2022-10-19T05:07:00.366Z,89.68
2022-10-19T05:08:00.759Z,89.56
2022-10-19T05:09:00.437Z,89.56
2022-10-19T05:10:00.353Z,89.56
2022-10-19T05:11:01.714Z,89.56
2022-10-19T05:12:00.353Z,89.56
2022-10-19T05:13:00.341Z,89.67
2022-10-19T05:14:00.292Z,89.67
2022-10-19T05:15:00.407Z,89.67
2022-10-19T05:16:00.968Z,89.67
2022-10-19T05:17:00.305Z,89.67
2022-10-19T05:18:00.314Z,89.67
2022-10-19T05:19:00.326Z,89.67
2022-10-19T05:20:00.523Z,89.67
2022-10-19T05:21:04.616Z,89.67
2022-10-19T05:22:00.333Z,89.67
2022-10-19T05:23:04.581Z,89.76
2022-10-19T05:24:00.285Z,89.76
2022-10-19T05:25:00.313Z,89.76
2022-10-19T05:26:00.298Z,89.76
2022-10-19T05:27:00.378Z,89.76
2022-10-19T05:28:00.300Z,89.91
2022-10-19T05:29:00.438Z,89.91
2022-10-19T05:30:00.321Z,89.91
2022-10-19T05:31:04.535Z,89.91
2022-10-19T05:32:00.305Z,89.91
2022-10-19T05:33:00.358Z,89.87
2022-10-19T05:34:00.463Z,89.87
2022-10-19T05:35:00.421Z,89.87
2022-10-19T05:36:08.844Z,89.87
2022-10-19T05:37:00.318Z,89.87
2022-10-19T05:38:00.301Z,89.62
2022-10-19T05:39:02.045Z,89.62
2022-10-19T05:40:00.477Z,89.62
2022-10-19T05:41:00.303Z,89.62
2022-10-19T05:42:00.325Z,89.62
2022-10-19T05:43:00.305Z,89.79
2022-10-19T05:44:01.041Z,89.79
2022-10-19T05:45:00.323Z,89.79
2022-10-19T05:46:02.247Z,89.79
2022-10-19T05:47:00.481Z,89.79
2022-10-19T05:48:00.297Z,89.80
2022-10-19T05:49:00.683Z,89.80
2022-10-19T05:50:00.324Z,89.80
2022-10-19T05:51:01.251Z,89.80
2022-10-19T05:52:00.312Z,89.80
2022-10-19T05:53:00.329Z,89.87
2022-10-19T05:54:00.416Z,89.87
2022-10-19T05:55:00.312Z,89.87
2022-10-19T05:56:00.325Z,89.87
2022-10-19T05:57:00.421Z,89.87
2022-10-19T05:58:00.306Z,89.78
2022-10-19T05:59:01.975Z,89.78
2022-10-19T06:00:00.377Z,89.78
2022-10-19T06:01:00.923Z,89.78
2022-10-19T06:02:00.354Z,89.78
2022-10-19T06:03:00.300Z,89.84
2022-10-19T06:04:00.799Z,89.84
2022-10-19T06:05:00.302Z,89.84
2022-10-19T06:06:02.389Z,89.84
2022-10-19T06:07:00.303Z,89.84
2022-10-19T06:08:00.301Z,89.72
2022-10-19T06:09:00.350Z,89.72
2022-10-19T06:10:00.403Z,89.72
2022-10-19T06:11:04.880Z,89.72
2022-10-19T06:12:00.980Z,89.72
2022-10-19T06:13:00.301Z,89.84
2022-10-19T06:14:01.371Z,89.84
2022-10-19T06:15:00.318Z,89.84
2022-10-19T06:16:00.344Z,89.84
2022-10-19T06:17:00.313Z,89.84
2022-10-19T06:18:00.306Z,89.89
2022-10-19T06:19:00.435Z,89.89
2022-10-19T06:20:00.335Z,89.89
2022-10-19T06:21:02.295Z,89.89
2022-10-19T06:22:00.302Z,89.89
2022-10-19T06:23:00.512Z,89.88
2022-10-19T06:24:02.450Z,89.88
2022-10-19T06:25:00.328Z,89.88
2022-10-19T06:26:02.796Z,89.88
2022-10-19T06:27:00.308Z,89.88
2022-10-19T06:28:00.747Z,90.38
2022-10-19T06:29:00.937Z,90.38
2022-10-19T06:30:00.389Z,90.38
2022-10-19T06:31:00.420Z,90.38
2022-10-19T06:32:00.335Z,90.38
2022-10-19T06:33:00.495Z,90.41
2022-10-19T06:34:00.462Z,90.41
2022-10-19T06:35:00.308Z,90.41
2022-10-19T06:36:08.918Z,90.41
2022-10-19T06:37:00.429Z,90.41
2022-10-19T06:38:00.322Z,90.93
2022-10-19T06:39:00.314Z,90.93
2022-10-19T06:40:04.737Z,90.93
2022-10-19T06:41:00.419Z,90.93
2022-10-19T06:42:00.302Z,90.93
2022-10-19T06:43:00.673Z,90.69
2022-10-19T06:44:00.314Z,90.69
2022-10-19T06:45:00.321Z,90.69
2022-10-19T06:46:10.190Z,90.69
2022-10-19T06:47:00.298Z,90.69
2022-10-19T06:48:03.523Z,90.94
2022-10-19T06:49:00.815Z,90.94
2022-10-19T06:50:00.718Z,90.94
2022-10-19T06:51:01.866Z,90.94
2022-10-19T06:52:01.232Z,90.94
2022-10-19T06:53:00.381Z,91.16
2022-10-19T06:54:00.384Z,91.16
2022-10-19T06:55:00.695Z,91.16
2022-10-19T06:56:01.175Z,91.16
2022-10-19T06:57:00.319Z,91.16
2022-10-19T06:58:00.307Z,91.42
2022-10-19T06:59:00.362Z,91.42
2022-10-19T07:00:00.381Z,91.42
2022-10-19T07:01:00.825Z,91.42
2022-10-19T07:02:00.304Z,91.42
2022-10-19T07:03:00.298Z,91.25
2022-10-19T07:04:00.322Z,91.25
2022-10-19T07:05:04.477Z,91.25
2022-10-19T07:06:01.229Z,91.25
2022-10-19T07:07:00.305Z,91.25
2022-10-19T07:08:00.446Z,91.60
2022-10-19T07:09:00.309Z,91.60
2022-10-19T07:10:00.340Z,91.60
2022-10-19T07:11:01.370Z,91.60
2022-10-19T07:12:00.305Z,91.60
2022-10-19T07:13:00.355Z,91.39
2022-10-19T07:14:00.360Z,91.39
2022-10-19T07:15:00.308Z,91.39
2022-10-19T07:16:02.911Z,91.39
2022-10-19T07:17:00.309Z,91.39
2022-10-19T07:18:00.297Z,91.25
2022-10-19T07:19:00.341Z,91.25
2022-10-19T07:20:00.368Z,91.25
2022-10-19T07:21:01.506Z,91.25
2022-10-19T07:22:00.521Z,91.25
2022-10-19T07:23:00.349Z,91.39
2022-10-19T07:24:00.296Z,91.39
2022-10-19T07:25:00.338Z,91.39
2022-10-19T07:26:10.187Z,91.39
2022-10-19T07:27:00.305Z,91.39
2022-10-19T07:28:00.345Z,91.34
2022-10-19T07:29:00.612Z,91.34
2022-10-19T07:30:00.338Z,91.34
2022-10-19T07:31:04.843Z,91.34
2022-10-19T07:32:00.320Z,91.34
2022-10-19T07:33:00.307Z,91.67
2022-10-19T07:34:01.563Z,91.67
2022-10-19T07:35:00.330Z,91.67
2022-10-19T07:36:01.154Z,91.67
2022-10-19T07:37:00.323Z,91.67
2022-10-19T07:38:00.302Z,91.81
2022-10-19T07:39:01.159Z,91.81
2022-10-19T07:40:00.321Z,91.81
2022-10-19T07:41:01.364Z,91.81
2022-10-19T07:42:00.312Z,91.81
2022-10-19T07:43:00.639Z,92.13
2022-10-19T07:44:00.398Z,92.13
2022-10-19T07:45:00.312Z,92.13
2022-10-19T07:46:02.543Z,92.13
2022-10-19T07:47:00.301Z,92.13
2022-10-19T07:48:00.327Z,92.19
2022-10-19T07:49:00.543Z,92.19
2022-10-19T07:50:00.393Z,92.19
2022-10-19T07:51:00.965Z,92.19
2022-10-19T07:52:00.482Z,92.19
2022-10-19T07:53:00.347Z,92.42
2022-10-19T07:54:00.309Z,92.42
2022-10-19T07:55:00.314Z,92.42
2022-10-19T07:56:02.592Z,92.42
2022-10-19T07:57:00.295Z,92.42
2022-10-19T07:58:00.301Z,92.83
2022-10-19T07:59:00.578Z,92.83
2022-10-19T08:00:00.416Z,92.83
2022-10-19T08:01:02.913Z,92.83
2022-10-19T08:02:00.330Z,92.83
2022-10-19T08:03:31.693Z,93.88
2022-10-19T08:05:03.240Z,93.88
2022-10-19T08:06:00.975Z,93.88
2022-10-19T08:07:00.303Z,93.88
2022-10-19T08:08:00.332Z,94.32
2022-10-19T08:09:00.371Z,94.32
2022-10-19T08:10:00.328Z,94.32
2022-10-19T08:11:10.192Z,94.32
2022-10-19T08:12:00.402Z,94.32
2022-10-19T08:13:00.309Z,93.96
2022-10-19T08:14:00.911Z,93.96
2022-10-19T08:15:00.343Z,93.96
2022-10-19T08:16:00.366Z,93.96
2022-10-19T08:17:00.447Z,93.96
2022-10-19T08:18:00.391Z,94.22
2022-10-19T08:19:01.675Z,94.22
2022-10-19T08:20:00.335Z,94.22
2022-10-19T08:21:01.162Z,94.22
2022-10-19T08:22:00.304Z,94.22
2022-10-19T08:23:00.334Z,93.76
2022-10-19T08:24:00.337Z,93.76
2022-10-19T08:25:00.350Z,93.76
2022-10-19T08:26:00.322Z,93.76
2022-10-19T08:27:00.306Z,93.76
2022-10-19T08:28:00.309Z,93.81
2022-10-19T08:29:01.651Z,93.81
2022-10-19T08:30:00.295Z,93.81
2022-10-19T08:31:08.048Z,93.81
2022-10-19T08:32:00.286Z,93.81
2022-10-19T08:33:00.656Z,93.41
2022-10-19T08:34:00.345Z,93.41
2022-10-19T08:35:00.306Z,93.41
2022-10-19T08:36:03.146Z,93.41
2022-10-19T08:37:06.717Z,93.41
2022-10-19T08:38:02.761Z,92.80
2022-10-19T08:39:00.901Z,92.80
2022-10-19T08:40:00.332Z,92.80
2022-10-19T08:41:05.492Z,92.80
2022-10-19T08:42:02.894Z,92.80
2022-10-19T08:43:10.194Z,92.11
2022-10-19T08:44:10.377Z,92.11
2022-10-19T08:45:08.035Z,92.11
2022-10-19T08:46:03.651Z,92.11
2022-10-19T08:47:02.625Z,92.11
2022-10-19T08:48:10.214Z,91.77
2022-10-19T08:49:00.369Z,91.77
2022-10-19T08:50:00.403Z,91.77
2022-10-19T08:51:00.360Z,91.77
2022-10-19T08:52:06.475Z,91.77
2022-10-19T08:53:01.511Z,91.55
2022-10-19T08:54:02.993Z,91.55
2022-10-19T08:55:03.066Z,91.55
2022-10-19T08:56:03.736Z,91.55
2022-10-19T08:57:10.018Z,91.55
2022-10-19T08:58:10.203Z,91.23
2022-10-19T08:59:10.207Z,91.23
2022-10-19T09:00:05.323Z,91.23
2022-10-19T09:01:00.299Z,91.23
2022-10-19T09:02:03.803Z,91.23
2022-10-19T09:03:03.605Z,90.90
2022-10-19T09:04:04.380Z,90.90
2022-10-19T09:05:04.576Z,90.90
2022-10-19T09:06:10.216Z,90.90
2022-10-19T09:07:10.248Z,90.90
2022-10-19T09:08:00.373Z,90.38
2022-10-19T09:09:00.470Z,90.38
2022-10-19T09:10:02.141Z,90.38
2022-10-19T09:11:00.340Z,90.38
2022-10-19T09:12:04.732Z,90.38
2022-10-19T09:13:02.408Z,89.96
2022-10-19T09:14:07.644Z,89.96
2022-10-19T09:15:02.359Z,89.96
2022-10-19T09:16:00.425Z,89.96
2022-10-19T09:17:01.939Z,89.96
2022-10-19T09:18:00.604Z,89.43
2022-10-19T09:19:00.509Z,89.43
2022-10-19T09:20:10.247Z,89.43
2022-10-19T09:21:03.584Z,89.43
2022-10-19T09:22:03.294Z,89.43
2022-10-19T09:23:09.774Z,89.03
2022-10-19T09:24:04.804Z,89.03
2022-10-19T09:25:02.705Z,89.03
2022-10-19T09:26:00.314Z,89.03
2022-10-19T09:27:00.763Z,89.03
2022-10-19T09:28:05.583Z,88.68
2022-10-19T09:29:05.590Z,88.68
2022-10-19T09:30:01.275Z,88.68
2022-10-19T09:31:00.790Z,88.68
2022-10-19T09:32:02.653Z,88.68
2022-10-19T09:33:00.924Z,88.37
2022-10-19T09:34:02.139Z,88.37
2022-10-19T09:35:01.972Z,88.37
2022-10-19T09:36:01.768Z,88.37
2022-10-19T09:37:00.345Z,88.37
2022-10-19T09:38:00.450Z,87.87
2022-10-19T09:39:00.449Z,87.87
2022-10-19T09:40:00.435Z,87.87
2022-10-19T09:41:10.189Z,87.87
2022-10-19T09:42:09.268Z,87.87
2022-10-19T09:43:00.523Z,87.32
2022-10-19T09:44:00.806Z,87.32
2022-10-19T09:45:01.795Z,87.32
2022-10-19T09:46:12.717Z,87.32
2022-10-19T09:47:03.605Z,87.32
2022-10-19T09:48:08.640Z,86.99
2022-10-19T09:49:02.264Z,86.99
2022-10-19T09:50:05.860Z,86.99
2022-10-19T09:51:01.204Z,86.99
2022-10-19T09:52:00.344Z,86.99
2022-10-19T09:53:03.925Z,86.52
2022-10-19T09:54:00.299Z,86.52
2022-10-19T09:55:02.300Z,86.52
2022-10-19T09:56:03.793Z,86.52
2022-10-19T09:57:00.615Z,86.52
2022-10-19T09:58:10.236Z,85.69
2022-10-19T09:59:00.306Z,85.69
2022-10-19T10:00:00.432Z,85.69
2022-10-19T10:01:01.330Z,85.69
2022-10-19T10:02:10.191Z,85.69
2022-10-19T10:03:00.349Z,84.68
2022-10-19T10:04:04.128Z,84.68
2022-10-19T10:05:01.337Z,84.68
2022-10-19T10:06:03.036Z,84.68
2022-10-19T10:07:00.341Z,84.68
2022-10-19T10:08:00.546Z,83.68
2022-10-19T10:09:00.716Z,83.68
2022-10-19T10:10:00.501Z,83.68
2022-10-19T10:11:07.834Z,83.68
2022-10-19T10:12:00.471Z,83.68
2022-10-19T10:13:00.691Z,83.16
2022-10-19T10:14:10.216Z,83.16
2022-10-19T10:15:02.851Z,83.16
2022-10-19T10:16:02.832Z,83.16
2022-10-19T10:17:01.362Z,83.16
2022-10-19T10:18:00.469Z,81.93
2022-10-19T10:19:05.656Z,81.93
2022-10-19T10:20:00.283Z,81.93
2022-10-19T10:21:03.148Z,81.93
2022-10-19T10:22:01.924Z,81.93
2022-10-19T10:23:02.459Z,81.79
2022-10-19T10:24:01.793Z,81.79
2022-10-19T10:25:00.661Z,81.79
2022-10-19T10:26:01.325Z,81.79
2022-10-19T10:27:02.104Z,81.79
2022-10-19T10:28:02.614Z,81.04
2022-10-19T10:29:01.570Z,81.04
2022-10-19T10:30:04.885Z,81.04
2022-10-19T10:31:03.790Z,81.04
2022-10-19T10:32:10.202Z,81.04
2022-10-19T10:33:08.214Z,80.64
2022-10-19T10:34:07.530Z,80.64
2022-10-19T10:35:01.984Z,80.64
2022-10-19T10:36:02.580Z,80.64
2022-10-19T10:37:01.931Z,80.64
2022-10-19T10:38:05.366Z,80.12
2022-10-19T10:39:03.951Z,80.12
2022-10-19T10:40:03.712Z,80.12
2022-10-19T10:41:03.258Z,80.12
2022-10-19T10:42:04.053Z,80.12
2022-10-19T10:43:03.769Z,79.48
2022-10-19T10:44:03.882Z,79.48
2022-10-19T10:45:00.873Z,79.48
2022-10-19T10:46:04.397Z,79.48
2022-10-19T10:47:02.001Z,79.48
2022-10-19T10:48:10.204Z,78.47
2022-10-19T10:49:03.108Z,78.47
2022-10-19T10:50:03.098Z,78.47
2022-10-19T10:51:00.446Z,78.47
2022-10-19T10:52:03.994Z,78.47
2022-10-19T10:53:01.750Z,77.62
2022-10-19T10:54:10.226Z,77.62
2022-10-19T10:55:10.205Z,77.62
2022-10-19T10:56:00.322Z,77.62
2022-10-19T10:57:07.908Z,77.62
2022-10-19T10:58:08.147Z,77.08
2022-10-19T10:59:00.272Z,77.08
2022-10-19T11:00:03.737Z,77.08
2022-10-19T11:01:06.601Z,77.08
2022-10-19T11:02:02.929Z,77.08
2022-10-19T11:03:05.704Z,76.59
2022-10-19T11:04:04.715Z,76.59
2022-10-19T11:05:10.218Z,76.59
2022-10-19T11:06:00.391Z,76.59
2022-10-19T11:07:03.985Z,76.59
2022-10-19T11:08:05.891Z,75.97
2022-10-19T11:09:06.682Z,75.97
2022-10-19T11:10:04.433Z,75.97
2022-10-19T11:11:00.289Z,75.97
2022-10-19T11:12:02.512Z,75.97
2022-10-19T11:13:10.217Z,75.62
2022-10-19T11:14:10.186Z,75.62
2022-10-19T11:15:03.657Z,75.62
2022-10-19T11:16:03.752Z,75.62
2022-10-19T11:17:03.959Z,75.62
2022-10-19T11:18:10.196Z,75.17
2022-10-19T11:19:10.223Z,75.17
2022-10-19T11:20:00.329Z,75.17
2022-10-19T11:21:03.969Z,75.17
2022-10-19T11:22:10.192Z,75.17
2022-10-19T11:23:05.990Z,74.42
2022-10-19T11:24:01.369Z,74.42
2022-10-19T11:25:00.302Z,74.42
2022-10-19T11:26:01.309Z,74.42
2022-10-19T11:27:10.196Z,74.42
2022-10-19T11:28:01.313Z,73.96
2022-10-19T11:29:10.202Z,73.96
2022-10-19T11:30:00.292Z,73.96
2022-10-19T11:31:05.464Z,73.96
2022-10-19T11:32:00.362Z,73.96
2022-10-19T11:33:01.333Z,71.85
2022-10-19T11:34:10.243Z,71.85
2022-10-19T11:35:00.299Z,71.85
2022-10-19T11:36:09.412Z,71.85
2022-10-19T11:37:00.297Z,71.85
2022-10-19T11:38:20.347Z,69.22
2022-10-19T11:39:10.186Z,69.22
2022-10-19T11:40:10.183Z,69.22
2022-10-19T11:41:17.863Z,69.22
2022-10-19T11:42:07.659Z,69.22
2022-10-19T11:43:03.027Z,70.01
2022-10-19T11:44:10.191Z,70.01
2022-10-19T11:45:00.290Z,70.01
2022-10-19T11:46:03.592Z,70.01
2022-10-19T11:47:10.214Z,70.01
2022-10-19T11:48:10.199Z,69.57
2022-10-19T11:49:03.610Z,69.57
2022-10-19T11:50:03.784Z,69.57
2022-10-19T11:51:20.907Z,69.57
2022-10-19T11:52:06.185Z,69.57
2022-10-19T11:53:10.208Z,68.59
2022-10-19T11:54:14.631Z,68.59
2022-10-19T11:55:00.313Z,68.59
2022-10-19T11:56:06.935Z,68.59
2022-10-19T11:57:11.520Z,68.59
2022-10-19T11:58:01.338Z,66.79
2022-10-19T11:59:08.895Z,66.79
2022-10-19T12:00:33.887Z,66.79
2022-10-19T12:01:10.191Z,66.79
2022-10-19T12:02:10.248Z,66.79
2022-10-19T12:03:10.209Z,65.92
2022-10-19T12:04:10.204Z,65.92
2022-10-19T12:05:03.727Z,65.92
2022-10-19T12:06:07.759Z,65.92
2022-10-19T12:07:08.930Z,65.92
2022-10-19T12:08:00.288Z,66.06
2022-10-19T12:09:08.561Z,66.06
2022-10-19T12:10:03.608Z,66.06
2022-10-19T12:11:07.516Z,66.06
2022-10-19T12:12:00.293Z,66.06
2022-10-19T12:13:01.584Z,65.29
2022-10-19T12:14:02.879Z,65.29
2022-10-19T12:15:04.353Z,65.29
2022-10-19T12:16:00.585Z,65.29
2022-10-19T12:17:05.823Z,65.29
2022-10-19T12:18:05.896Z,64.97
2022-10-19T12:19:02.884Z,64.97
2022-10-19T12:20:04.188Z,64.97
2022-10-19T12:21:01.979Z,64.97
2022-10-19T12:22:03.244Z,64.97
2022-10-19T12:23:03.918Z,65.10
2022-10-19T12:24:02.033Z,65.10
2022-10-19T12:25:00.702Z,65.10
2022-10-19T12:26:02.701Z,65.10
2022-10-19T12:27:00.791Z,65.10
2022-10-19T12:28:01.874Z,63.03
2022-10-19T12:29:03.334Z,63.03
2022-10-19T12:30:05.539Z,63.03
2022-10-19T12:31:01.130Z,63.03
2022-10-19T12:32:01.951Z,63.03
2022-10-19T12:33:01.340Z,61.90
2022-10-19T12:34:10.226Z,61.90
2022-10-19T12:35:10.259Z,61.90
2022-10-19T12:36:10.202Z,61.90
2022-10-19T12:37:00.303Z,61.90
2022-10-19T12:38:07.609Z,61.53
2022-10-19T12:39:10.203Z,61.53
2022-10-19T12:40:01.316Z,61.53
2022-10-19T12:41:08.467Z,61.53
2022-10-19T12:42:06.205Z,61.53
2022-10-19T12:43:07.249Z,61.98
2022-10-19T12:44:07.954Z,61.98
2022-10-19T12:45:10.255Z,61.98
2022-10-19T12:46:10.213Z,61.98
2022-10-19T12:47:07.404Z,61.98
2022-10-19T12:48:10.209Z,61.00
2022-10-19T12:49:10.194Z,61.00
2022-10-19T12:50:00.341Z,61.00
2022-10-19T12:51:01.762Z,61.00
2022-10-19T12:52:00.641Z,61.00
2022-10-19T12:53:00.338Z,60.25
2022-10-19T12:54:08.220Z,60.25